sensor_id;sensor_type;location;lat;lon;timestamp;temperature;humidity
26909;DHT22;14477;51.038;4.588;2023-01-28T00:00:05;6.60;99.90
26909;DHT22;14477;51.038;4.588;2023-01-28T00:02:32;6.60;99.90
26909;DHT22;14477;51.038;4.588;2023-01-28T00:04:58;6.60;99.90
26909;DHT22;14477;51.038;4.588;2023-01-28T00:07:24;6.60;99.90
26909;DHT22;14477;51.038;4.588;2023-01-28T00:09:50;6.60;99.90
26909;DHT22;14477;51.038;4.588;2023-01-28T00:12:15;6.60;99.90
26909;DHT22;14477;51.038;4.588;2023-01-28T00:14:41;6.60;99.90
26909;DHT22;14477;51.038;4.588;2023-01-28T00:17:07;6.60;99.90
26909;DHT22;14477;51.038;4.588;2023-01-28T00:19:32;6.60;99.90
26909;DHT22;14477;51.038;4.588;2023-01-28T00:21:58;6.60;99.90
26909;DHT22;14477;51.038;4.588;2023-01-28T00:24:24;6.60;99.90
26909;DHT22;14477;51.038;4.588;2023-01-28T00:26:50;6.60;99.90
26909;DHT22;14477;51.038;4.588;2023-01-28T00:29:16;6.60;99.90
26909;DHT22;14477;51.038;4.588;2023-01-28T00:31:42;6.60;99.90
26909;DHT22;14477;51.038;4.588;2023-01-28T00:34:08;6.60;99.90
26909;DHT22;14477;51.038;4.588;2023-01-28T00:36:34;6.60;99.90
26909;DHT22;14477;51.038;4.588;2023-01-28T00:39:04;6.50;99.90
26909;DHT22;14477;51.038;4.588;2023-01-28T00:41:31;6.50;99.90
26909;DHT22;14477;51.038;4.588;2023-01-28T00:43:57;6.50;99.90
26909;DHT22;14477;51.038;4.588;2023-01-28T00:46:24;6.50;99.90
26909;DHT22;14477;51.038;4.588;2023-01-28T00:48:50;6.50;99.90
26909;DHT22;14477;51.038;4.588;2023-01-28T00:51:17;6.50;99.90
26909;DHT22;14477;51.038;4.588;2023-01-28T00:53:44;6.50;99.90
26909;DHT22;14477;51.038;4.588;2023-01-28T00:56:13;6.50;99.90
26909;DHT22;14477;51.038;4.588;2023-01-28T00:58:39;6.50;99.90
26909;DHT22;14477;51.038;4.588;2023-01-28T01:03:42;6.40;99.90
26909;DHT22;14477;51.038;4.588;2023-01-28T01:06:10;6.40;99.90
26909;DHT22;14477;51.038;4.588;2023-01-28T01:08:36;6.50;99.90
26909;DHT22;14477;51.038;4.588;2023-01-28T01:11:05;6.40;99.90
26909;DHT22;14477;51.038;4.588;2023-01-28T01:13:32;6.40;99.90
26909;DHT22;14477;51.038;4.588;2023-01-28T01:16:21;6.40;99.90
26909;DHT22;14477;51.038;4.588;2023-01-28T01:18:47;6.40;99.90
26909;DHT22;14477;51.038;4.588;2023-01-28T01:21:16;6.40;99.90
26909;DHT22;14477;51.038;4.588;2023-01-28T01:23:42;6.40;99.90
26909;DHT22;14477;51.038;4.588;2023-01-28T01:26:09;6.40;99.90
26909;DHT22;14477;51.038;4.588;2023-01-28T01:28:35;6.40;99.90
26909;DHT22;14477;51.038;4.588;2023-01-28T01:31:13;6.40;99.90
26909;DHT22;14477;51.038;4.588;2023-01-28T01:33:43;6.40;99.90
26909;DHT22;14477;51.038;4.588;2023-01-28T01:36:10;6.30;99.90
26909;DHT22;14477;51.038;4.588;2023-01-28T01:38:36;6.30;99.90
26909;DHT22;14477;51.038;4.588;2023-01-28T01:41:04;6.40;99.90
26909;DHT22;14477;51.038;4.588;2023-01-28T01:44:04;6.30;99.90
26909;DHT22;14477;51.038;4.588;2023-01-28T01:46:42;6.30;99.90
26909;DHT22;14477;51.038;4.588;2023-01-28T01:49:18;6.30;99.90
26909;DHT22;14477;51.038;4.588;2023-01-28T01:51:46;6.30;99.90
26909;DHT22;14477;51.038;4.588;2023-01-28T01:54:14;6.30;99.90
26909;DHT22;14477;51.038;4.588;2023-01-28T01:56:42;6.30;99.90
26909;DHT22;14477;51.038;4.588;2023-01-28T01:59:15;6.30;99.90
26909;DHT22;14477;51.038;4.588;2023-01-28T02:01:43;6.30;99.90
26909;DHT22;14477;51.038;4.588;2023-01-28T02:04:18;6.30;99.90
26909;DHT22;14477;51.038;4.588;2023-01-28T02:06:46;6.30;99.90
26909;DHT22;14477;51.038;4.588;2023-01-28T02:09:30;6.30;99.90
26909;DHT22;14477;51.038;4.588;2023-01-28T02:12:06;6.30;99.90
26909;DHT22;14477;51.038;4.588;2023-01-28T02:14:34;6.30;99.90
26909;DHT22;14477;51.038;4.588;2023-01-28T02:17:02;6.30;99.90
26909;DHT22;14477;51.038;4.588;2023-01-28T02:19:45;6.30;99.90
26909;DHT22;14477;51.038;4.588;2023-01-28T02:30:39;6.20;99.90
26909;DHT22;14477;51.038;4.588;2023-01-28T02:33:28;6.20;99.90
26909;DHT22;14477;51.038;4.588;2023-01-28T02:35:55;6.20;99.90
26909;DHT22;14477;51.038;4.588;2023-01-28T02:38:33;6.20;99.90
26909;DHT22;14477;51.038;4.588;2023-01-28T02:41:04;6.20;99.90
26909;DHT22;14477;51.038;4.588;2023-01-28T02:43:42;6.20;99.90
26909;DHT22;14477;51.038;4.588;2023-01-28T02:49:11;6.20;99.90
26909;DHT22;14477;51.038;4.588;2023-01-28T02:57:41;6.20;99.90
26909;DHT22;14477;51.038;4.588;2023-01-28T03:00:23;6.20;99.90
26909;DHT22;14477;51.038;4.588;2023-01-28T03:03:12;6.10;99.90
26909;DHT22;14477;51.038;4.588;2023-01-28T03:05:43;6.10;99.90
26909;DHT22;14477;51.038;4.588;2023-01-28T03:08:39;6.10;99.90
26909;DHT22;14477;51.038;4.588;2023-01-28T03:11:25;6.10;99.90
26909;DHT22;14477;51.038;4.588;2023-01-28T03:14:10;6.10;99.90
26909;DHT22;14477;51.038;4.588;2023-01-28T03:16:59;6.10;99.90
26909;DHT22;14477;51.038;4.588;2023-01-28T03:19:44;6.10;99.90
26909;DHT22;14477;51.038;4.588;2023-01-28T03:22:30;6.00;99.90
26909;DHT22;14477;51.038;4.588;2023-01-28T03:25:19;6.00;99.90
26909;DHT22;14477;51.038;4.588;2023-01-28T03:28:07;6.00;99.90
26909;DHT22;14477;51.038;4.588;2023-01-28T03:31:14;6.00;99.90
26909;DHT22;14477;51.038;4.588;2023-01-28T03:34:00;6.00;99.90
26909;DHT22;14477;51.038;4.588;2023-01-28T03:36:46;6.00;99.90
26909;DHT22;14477;51.038;4.588;2023-01-28T03:39:16;6.00;99.90
26909;DHT22;14477;51.038;4.588;2023-01-28T03:41:43;6.00;99.90
26909;DHT22;14477;51.038;4.588;2023-01-28T03:44:19;6.00;99.90
26909;DHT22;14477;51.038;4.588;2023-01-28T03:47:03;6.00;99.90
26909;DHT22;14477;51.038;4.588;2023-01-28T03:49:31;6.00;99.90
26909;DHT22;14477;51.038;4.588;2023-01-28T03:51:57;6.00;99.90
26909;DHT22;14477;51.038;4.588;2023-01-28T03:54:22;6.00;99.90
26909;DHT22;14477;51.038;4.588;2023-01-28T03:56:48;6.00;99.90
26909;DHT22;14477;51.038;4.588;2023-01-28T03:59:14;6.00;99.90
26909;DHT22;14477;51.038;4.588;2023-01-28T04:01:40;6.00;99.90
26909;DHT22;14477;51.038;4.588;2023-01-28T04:04:05;6.00;99.90
26909;DHT22;14477;51.038;4.588;2023-01-28T04:06:31;6.00;99.90
26909;DHT22;14477;51.038;4.588;2023-01-28T04:08:57;6.00;99.90
26909;DHT22;14477;51.038;4.588;2023-01-28T04:11:25;6.00;99.90
26909;DHT22;14477;51.038;4.588;2023-01-28T04:13:51;6.00;99.90
26909;DHT22;14477;51.038;4.588;2023-01-28T04:16:17;6.00;99.90
26909;DHT22;14477;51.038;4.588;2023-01-28T04:18:44;6.00;99.90
26909;DHT22;14477;51.038;4.588;2023-01-28T04:21:10;6.00;99.90
26909;DHT22;14477;51.038;4.588;2023-01-28T04:23:37;6.00;99.90
26909;DHT22;14477;51.038;4.588;2023-01-28T04:26:03;6.00;99.90
26909;DHT22;14477;51.038;4.588;2023-01-28T04:28:29;5.90;99.90
26909;DHT22;14477;51.038;4.588;2023-01-28T04:30:55;5.90;99.90
26909;DHT22;14477;51.038;4.588;2023-01-28T04:33:21;6.00;99.90
26909;DHT22;14477;51.038;4.588;2023-01-28T04:35:46;5.90;99.90
26909;DHT22;14477;51.038;4.588;2023-01-28T04:38:12;5.90;99.90
26909;DHT22;14477;51.038;4.588;2023-01-28T04:40:38;5.90;99.90
26909;DHT22;14477;51.038;4.588;2023-01-28T04:43:03;5.90;99.90
26909;DHT22;14477;51.038;4.588;2023-01-28T04:45:29;5.90;99.90
26909;DHT22;14477;51.038;4.588;2023-01-28T04:47:55;5.90;99.90
26909;DHT22;14477;51.038;4.588;2023-01-28T04:50:21;5.90;99.90
26909;DHT22;14477;51.038;4.588;2023-01-28T04:52:47;5.90;99.90
26909;DHT22;14477;51.038;4.588;2023-01-28T04:55:13;5.90;99.90
26909;DHT22;14477;51.038;4.588;2023-01-28T04:57:39;5.80;99.90
26909;DHT22;14477;51.038;4.588;2023-01-28T05:00:05;5.90;99.90
26909;DHT22;14477;51.038;4.588;2023-01-28T05:02:30;5.80;99.90
26909;DHT22;14477;51.038;4.588;2023-01-28T05:04:56;5.90;99.90
26909;DHT22;14477;51.038;4.588;2023-01-28T05:07:22;5.80;99.90
26909;DHT22;14477;51.038;4.588;2023-01-28T05:09:48;5.80;99.90
26909;DHT22;14477;51.038;4.588;2023-01-28T05:12:13;5.80;99.90
26909;DHT22;14477;51.038;4.588;2023-01-28T05:14:39;5.80;99.90
26909;DHT22;14477;51.038;4.588;2023-01-28T05:17:05;5.80;99.90
26909;DHT22;14477;51.038;4.588;2023-01-28T05:19:31;5.80;99.90
26909;DHT22;14477;51.038;4.588;2023-01-28T05:21:57;5.80;99.90
26909;DHT22;14477;51.038;4.588;2023-01-28T05:24:23;5.80;99.90
26909;DHT22;14477;51.038;4.588;2023-01-28T05:26:49;5.70;99.90
26909;DHT22;14477;51.038;4.588;2023-01-28T05:29:15;5.80;99.90
26909;DHT22;14477;51.038;4.588;2023-01-28T05:31:40;5.80;99.90
26909;DHT22;14477;51.038;4.588;2023-01-28T05:34:06;5.70;99.90
26909;DHT22;14477;51.038;4.588;2023-01-28T05:36:32;5.70;99.90
26909;DHT22;14477;51.038;4.588;2023-01-28T05:38:58;5.70;99.90
26909;DHT22;14477;51.038;4.588;2023-01-28T05:41:24;5.70;99.90
26909;DHT22;14477;51.038;4.588;2023-01-28T05:43:49;5.70;99.90
26909;DHT22;14477;51.038;4.588;2023-01-28T05:46:15;5.60;99.90
26909;DHT22;14477;51.038;4.588;2023-01-28T05:48:40;5.60;99.90
26909;DHT22;14477;51.038;4.588;2023-01-28T05:51:06;5.60;99.90
26909;DHT22;14477;51.038;4.588;2023-01-28T05:53:32;5.60;99.90
26909;DHT22;14477;51.038;4.588;2023-01-28T05:55:58;5.60;99.90
26909;DHT22;14477;51.038;4.588;2023-01-28T05:58:23;5.60;99.90
26909;DHT22;14477;51.038;4.588;2023-01-28T06:00:53;5.60;99.90
26909;DHT22;14477;51.038;4.588;2023-01-28T06:03:19;5.60;99.90
26909;DHT22;14477;51.038;4.588;2023-01-28T06:05:47;5.60;99.90
26909;DHT22;14477;51.038;4.588;2023-01-28T06:08:12;5.60;99.90
26909;DHT22;14477;51.038;4.588;2023-01-28T06:10:38;5.60;99.90
26909;DHT22;14477;51.038;4.588;2023-01-28T06:13:04;5.60;99.90
26909;DHT22;14477;51.038;4.588;2023-01-28T06:15:30;5.60;99.90
26909;DHT22;14477;51.038;4.588;2023-01-28T06:17:56;5.60;99.90
26909;DHT22;14477;51.038;4.588;2023-01-28T06:20:21;5.60;99.90
26909;DHT22;14477;51.038;4.588;2023-01-28T06:22:50;5.60;99.90
26909;DHT22;14477;51.038;4.588;2023-01-28T06:25:16;5.60;99.90
26909;DHT22;14477;51.038;4.588;2023-01-28T06:27:42;5.50;99.90
26909;DHT22;14477;51.038;4.588;2023-01-28T06:30:08;5.60;99.90
26909;DHT22;14477;51.038;4.588;2023-01-28T06:32:34;5.50;99.90
26909;DHT22;14477;51.038;4.588;2023-01-28T06:34:59;5.60;99.90
26909;DHT22;14477;51.038;4.588;2023-01-28T06:37:25;5.50;99.90
26909;DHT22;14477;51.038;4.588;2023-01-28T06:39:51;5.50;99.90
26909;DHT22;14477;51.038;4.588;2023-01-28T06:42:17;5.50;99.90
26909;DHT22;14477;51.038;4.588;2023-01-28T06:44:42;5.50;99.90
26909;DHT22;14477;51.038;4.588;2023-01-28T06:47:08;5.50;99.90
26909;DHT22;14477;51.038;4.588;2023-01-28T06:49:36;5.50;99.90
26909;DHT22;14477;51.038;4.588;2023-01-28T06:52:02;5.50;99.90
26909;DHT22;14477;51.038;4.588;2023-01-28T06:54:29;5.50;99.90
26909;DHT22;14477;51.038;4.588;2023-01-28T06:56:54;5.50;99.90
26909;DHT22;14477;51.038;4.588;2023-01-28T06:59:20;5.40;99.90
26909;DHT22;14477;51.038;4.588;2023-01-28T07:01:46;5.40;99.90
26909;DHT22;14477;51.038;4.588;2023-01-28T07:04:12;5.50;99.90
26909;DHT22;14477;51.038;4.588;2023-01-28T07:06:37;5.40;99.90
26909;DHT22;14477;51.038;4.588;2023-01-28T07:09:03;5.40;99.90
26909;DHT22;14477;51.038;4.588;2023-01-28T07:11:29;5.40;99.90
26909;DHT22;14477;51.038;4.588;2023-01-28T07:13:55;5.40;99.90
26909;DHT22;14477;51.038;4.588;2023-01-28T07:16:20;5.40;99.90
26909;DHT22;14477;51.038;4.588;2023-01-28T07:18:46;5.40;99.90
26909;DHT22;14477;51.038;4.588;2023-01-28T07:21:12;5.40;99.90
26909;DHT22;14477;51.038;4.588;2023-01-28T07:23:38;5.40;99.90
26909;DHT22;14477;51.038;4.588;2023-01-28T07:26:04;5.30;99.90
26909;DHT22;14477;51.038;4.588;2023-01-28T07:28:30;5.30;99.90
26909;DHT22;14477;51.038;4.588;2023-01-28T07:30:56;5.30;99.90
26909;DHT22;14477;51.038;4.588;2023-01-28T07:33:22;5.30;99.90
26909;DHT22;14477;51.038;4.588;2023-01-28T07:35:48;5.30;99.90
26909;DHT22;14477;51.038;4.588;2023-01-28T07:38:14;5.30;99.90
26909;DHT22;14477;51.038;4.588;2023-01-28T07:40:40;5.30;99.90
26909;DHT22;14477;51.038;4.588;2023-01-28T07:43:09;5.30;99.90
26909;DHT22;14477;51.038;4.588;2023-01-28T07:45:35;5.30;99.90
26909;DHT22;14477;51.038;4.588;2023-01-28T07:48:06;5.30;99.90
26909;DHT22;14477;51.038;4.588;2023-01-28T07:50:34;5.30;99.90
26909;DHT22;14477;51.038;4.588;2023-01-28T07:53:05;5.30;99.90
26909;DHT22;14477;51.038;4.588;2023-01-28T07:55:31;5.30;99.90
26909;DHT22;14477;51.038;4.588;2023-01-28T07:58:00;5.30;99.90
26909;DHT22;14477;51.038;4.588;2023-01-28T08:00:28;5.30;99.90
26909;DHT22;14477;51.038;4.588;2023-01-28T08:03:00;5.30;99.90
26909;DHT22;14477;51.038;4.588;2023-01-28T08:05:35;5.30;99.90
26909;DHT22;14477;51.038;4.588;2023-01-28T08:08:03;5.30;99.90
26909;DHT22;14477;51.038;4.588;2023-01-28T08:10:29;5.30;99.90
26909;DHT22;14477;51.038;4.588;2023-01-28T08:12:56;5.30;99.90
26909;DHT22;14477;51.038;4.588;2023-01-28T08:15:28;5.30;99.90
26909;DHT22;14477;51.038;4.588;2023-01-28T08:17:55;5.30;99.90
26909;DHT22;14477;51.038;4.588;2023-01-28T08:20:22;5.30;99.90
26909;DHT22;14477;51.038;4.588;2023-01-28T08:22:48;5.30;99.90
26909;DHT22;14477;51.038;4.588;2023-01-28T08:25:14;5.30;99.90
26909;DHT22;14477;51.038;4.588;2023-01-28T08:27:40;5.30;99.90
26909;DHT22;14477;51.038;4.588;2023-01-28T08:30:06;5.30;99.90
26909;DHT22;14477;51.038;4.588;2023-01-28T08:32:33;5.30;99.90
26909;DHT22;14477;51.038;4.588;2023-01-28T08:35:00;5.30;99.90
26909;DHT22;14477;51.038;4.588;2023-01-28T08:37:25;5.30;99.90
26909;DHT22;14477;51.038;4.588;2023-01-28T08:39:51;5.40;99.90
26909;DHT22;14477;51.038;4.588;2023-01-28T08:42:17;5.40;99.90
26909;DHT22;14477;51.038;4.588;2023-01-28T08:44:43;5.40;99.90
26909;DHT22;14477;51.038;4.588;2023-01-28T08:47:09;5.40;99.90
26909;DHT22;14477;51.038;4.588;2023-01-28T08:49:34;5.40;99.90
26909;DHT22;14477;51.038;4.588;2023-01-28T08:52:00;5.40;99.90
26909;DHT22;14477;51.038;4.588;2023-01-28T08:54:26;5.40;99.90
26909;DHT22;14477;51.038;4.588;2023-01-28T08:56:52;5.40;99.90
26909;DHT22;14477;51.038;4.588;2023-01-28T08:59:17;5.40;99.90
26909;DHT22;14477;51.038;4.588;2023-01-28T09:01:43;5.40;99.90
26909;DHT22;14477;51.038;4.588;2023-01-28T09:04:10;5.40;99.90
26909;DHT22;14477;51.038;4.588;2023-01-28T09:06:35;5.40;99.90
26909;DHT22;14477;51.038;4.588;2023-01-28T09:09:01;5.40;99.90
26909;DHT22;14477;51.038;4.588;2023-01-28T09:11:28;5.40;99.90
26909;DHT22;14477;51.038;4.588;2023-01-28T09:13:55;5.50;99.90
26909;DHT22;14477;51.038;4.588;2023-01-28T09:16:21;5.40;99.90
26909;DHT22;14477;51.038;4.588;2023-01-28T09:18:47;5.40;99.90
26909;DHT22;14477;51.038;4.588;2023-01-28T09:21:13;5.50;99.90
26909;DHT22;14477;51.038;4.588;2023-01-28T09:23:39;5.50;99.90
26909;DHT22;14477;51.038;4.588;2023-01-28T09:26:05;5.50;99.90
26909;DHT22;14477;51.038;4.588;2023-01-28T09:28:31;5.50;99.90
26909;DHT22;14477;51.038;4.588;2023-01-28T09:31:06;5.50;99.90
26909;DHT22;14477;51.038;4.588;2023-01-28T09:33:32;5.50;99.90
26909;DHT22;14477;51.038;4.588;2023-01-28T09:36:02;5.50;99.90
26909;DHT22;14477;51.038;4.588;2023-01-28T09:38:29;5.50;99.90
26909;DHT22;14477;51.038;4.588;2023-01-28T09:40:55;5.60;99.90
26909;DHT22;14477;51.038;4.588;2023-01-28T09:43:52;5.60;99.90
26909;DHT22;14477;51.038;4.588;2023-01-28T09:46:19;5.60;99.90
26909;DHT22;14477;51.038;4.588;2023-01-28T09:48:48;5.60;99.90
26909;DHT22;14477;51.038;4.588;2023-01-28T09:51:38;5.60;99.90
26909;DHT22;14477;51.038;4.588;2023-01-28T09:54:23;5.70;99.90
26909;DHT22;14477;51.038;4.588;2023-01-28T09:57:37;5.70;99.90
26909;DHT22;14477;51.038;4.588;2023-01-28T09:59:43;5.70;99.90
26909;DHT22;14477;51.038;4.588;2023-01-28T10:10:49;5.90;99.90
26909;DHT22;14477;51.038;4.588;2023-01-28T10:13:27;5.90;99.90
26909;DHT22;14477;51.038;4.588;2023-01-28T10:19:18;5.90;99.90
26909;DHT22;14477;51.038;4.588;2023-01-28T10:21:51;5.90;99.90
26909;DHT22;14477;51.038;4.588;2023-01-28T10:26:56;6.00;99.90
26909;DHT22;14477;51.038;4.588;2023-01-28T10:29:26;6.00;99.90
26909;DHT22;14477;51.038;4.588;2023-01-28T10:32:01;6.00;99.90
26909;DHT22;14477;51.038;4.588;2023-01-28T10:34:29;6.00;99.90
26909;DHT22;14477;51.038;4.588;2023-01-28T10:36:56;6.00;99.90
26909;DHT22;14477;51.038;4.588;2023-01-28T10:39:24;6.00;99.90
26909;DHT22;14477;51.038;4.588;2023-01-28T10:41:51;6.00;99.90
26909;DHT22;14477;51.038;4.588;2023-01-28T10:44:34;6.00;99.90
26909;DHT22;14477;51.038;4.588;2023-01-28T10:47:13;6.10;99.90
26909;DHT22;14477;51.038;4.588;2023-01-28T10:49:47;6.10;99.90
26909;DHT22;14477;51.038;4.588;2023-01-28T10:52:14;6.10;99.90
26909;DHT22;14477;51.038;4.588;2023-01-28T10:54:40;6.10;99.90
26909;DHT22;14477;51.038;4.588;2023-01-28T10:57:10;6.10;99.90
26909;DHT22;14477;51.038;4.588;2023-01-28T10:59:37;6.10;99.90
26909;DHT22;14477;51.038;4.588;2023-01-28T11:02:29;6.20;99.90
26909;DHT22;14477;51.038;4.588;2023-01-28T11:07:29;6.20;99.90
26909;DHT22;14477;51.038;4.588;2023-01-28T11:09:55;6.20;99.90
26909;DHT22;14477;51.038;4.588;2023-01-28T11:12:26;6.20;99.90
26909;DHT22;14477;51.038;4.588;2023-01-28T11:14:57;6.20;99.90
26909;DHT22;14477;51.038;4.588;2023-01-28T11:17:25;6.20;99.90
26909;DHT22;14477;51.038;4.588;2023-01-28T11:19:57;6.20;99.90
26909;DHT22;14477;51.038;4.588;2023-01-28T11:22:35;6.20;99.90
26909;DHT22;14477;51.038;4.588;2023-01-28T11:27:50;6.20;99.90
26909;DHT22;14477;51.038;4.588;2023-01-28T11:30:24;6.20;99.90
26909;DHT22;14477;51.038;4.588;2023-01-28T11:35:28;6.20;99.90
26909;DHT22;14477;51.038;4.588;2023-01-28T11:37:56;6.20;99.90
26909;DHT22;14477;51.038;4.588;2023-01-28T11:40:23;6.20;99.90
26909;DHT22;14477;51.038;4.588;2023-01-28T11:42:49;6.20;99.90
26909;DHT22;14477;51.038;4.588;2023-01-28T11:45:18;6.20;99.90
26909;DHT22;14477;51.038;4.588;2023-01-28T11:47:48;6.20;99.90
26909;DHT22;14477;51.038;4.588;2023-01-28T12:07:55;7.30;99.90
26909;DHT22;14477;51.038;4.588;2023-01-28T12:11:15;7.70;99.90
26909;DHT22;14477;51.038;4.588;2023-01-28T12:27:02;10.20;99.90
26909;DHT22;14477;51.038;4.588;2023-01-28T12:29:40;10.20;99.90
26909;DHT22;14477;51.038;4.588;2023-01-28T12:37:49;10.30;99.90
26909;DHT22;14477;51.038;4.588;2023-01-28T12:46:40;11.10;99.90
26909;DHT22;14477;51.038;4.588;2023-01-28T12:49:13;11.40;99.90
26909;DHT22;14477;51.038;4.588;2023-01-28T12:54:28;11.70;99.90
26909;DHT22;14477;51.038;4.588;2023-01-28T12:56:55;11.90;99.90
26909;DHT22;14477;51.038;4.588;2023-01-28T12:59:27;12.10;99.90
26909;DHT22;14477;51.038;4.588;2023-01-28T13:04:43;12.70;99.90
26909;DHT22;14477;51.038;4.588;2023-01-28T13:09:53;13.30;99.90
26909;DHT22;14477;51.038;4.588;2023-01-28T13:12:20;13.50;99.90
26909;DHT22;14477;51.038;4.588;2023-01-28T13:14:47;13.60;99.90
26909;DHT22;14477;51.038;4.588;2023-01-28T13:17:30;13.70;99.90
26909;DHT22;14477;51.038;4.588;2023-01-28T13:19:57;13.70;99.90
26909;DHT22;14477;51.038;4.588;2023-01-28T13:24:52;13.50;99.90
26909;DHT22;14477;51.038;4.588;2023-01-28T13:27:26;13.30;99.90
26909;DHT22;14477;51.038;4.588;2023-01-28T13:30:02;13.00;99.90
26909;DHT22;14477;51.038;4.588;2023-01-28T13:32:33;12.80;99.90
26909;DHT22;14477;51.038;4.588;2023-01-28T13:35:03;12.50;99.90
26909;DHT22;14477;51.038;4.588;2023-01-28T13:37:42;12.20;99.90
26909;DHT22;14477;51.038;4.588;2023-01-28T13:42:37;11.70;99.90
26909;DHT22;14477;51.038;4.588;2023-01-28T13:47:45;11.30;99.90
26909;DHT22;14477;51.038;4.588;2023-01-28T13:50:18;11.20;99.90
26909;DHT22;14477;51.038;4.588;2023-01-28T13:55:21;10.80;99.90
26909;DHT22;14477;51.038;4.588;2023-01-28T14:12:30;9.90;99.90
26909;DHT22;14477;51.038;4.588;2023-01-28T14:17:51;9.80;99.90
26909;DHT22;14477;51.038;4.588;2023-01-28T14:20:26;9.70;99.90
26909;DHT22;14477;51.038;4.588;2023-01-28T14:23:01;9.70;99.90
26909;DHT22;14477;51.038;4.588;2023-01-28T14:28:06;9.50;99.90
26909;DHT22;14477;51.038;4.588;2023-01-28T14:30:52;9.40;99.90
26909;DHT22;14477;51.038;4.588;2023-01-28T14:33:19;9.40;99.90
26909;DHT22;14477;51.038;4.588;2023-01-28T14:35:47;9.30;99.90
26909;DHT22;14477;51.038;4.588;2023-01-28T14:38:17;9.30;99.90
26909;DHT22;14477;51.038;4.588;2023-01-28T14:40:44;9.20;99.90
26909;DHT22;14477;51.038;4.588;2023-01-28T14:43:15;9.20;99.90
26909;DHT22;14477;51.038;4.588;2023-01-28T14:56:50;9.40;99.90
26909;DHT22;14477;51.038;4.588;2023-01-28T14:59:27;9.30;99.90
26909;DHT22;14477;51.038;4.588;2023-01-28T15:01:56;9.20;99.90
26909;DHT22;14477;51.038;4.588;2023-01-28T15:07:24;9.00;99.90
26909;DHT22;14477;51.038;4.588;2023-01-28T15:10:29;9.00;99.90
26909;DHT22;14477;51.038;4.588;2023-01-28T15:13:04;8.90;99.90
26909;DHT22;14477;51.038;4.588;2023-01-28T15:15:39;8.90;99.90
26909;DHT22;14477;51.038;4.588;2023-01-28T15:18:29;8.80;99.90
26909;DHT22;14477;51.038;4.588;2023-01-28T15:20:56;8.70;99.90
26909;DHT22;14477;51.038;4.588;2023-01-28T15:26:06;8.60;99.90
26909;DHT22;14477;51.038;4.588;2023-01-28T15:28:36;8.60;99.90
26909;DHT22;14477;51.038;4.588;2023-01-28T15:31:03;8.60;99.90
26909;DHT22;14477;51.038;4.588;2023-01-28T15:33:29;8.50;99.90
26909;DHT22;14477;51.038;4.588;2023-01-28T15:35:56;8.40;99.90
26909;DHT22;14477;51.038;4.588;2023-01-28T15:38:25;8.40;99.90
26909;DHT22;14477;51.038;4.588;2023-01-28T15:40:57;8.40;99.90
26909;DHT22;14477;51.038;4.588;2023-01-28T15:43:27;8.40;99.90
26909;DHT22;14477;51.038;4.588;2023-01-28T15:45:55;8.30;99.90
26909;DHT22;14477;51.038;4.588;2023-01-28T15:48:24;8.30;99.90
26909;DHT22;14477;51.038;4.588;2023-01-28T15:51:08;8.30;99.90
26909;DHT22;14477;51.038;4.588;2023-01-28T15:53:43;8.20;99.90
26909;DHT22;14477;51.038;4.588;2023-01-28T15:56:14;8.20;99.90
26909;DHT22;14477;51.038;4.588;2023-01-28T15:58:41;8.20;99.90
26909;DHT22;14477;51.038;4.588;2023-01-28T16:01:13;8.10;99.90
26909;DHT22;14477;51.038;4.588;2023-01-28T16:03:41;8.10;99.90
26909;DHT22;14477;51.038;4.588;2023-01-28T16:06:17;8.00;99.90
26909;DHT22;14477;51.038;4.588;2023-01-28T16:08:56;8.00;99.90
26909;DHT22;14477;51.038;4.588;2023-01-28T16:11:32;7.90;99.90
26909;DHT22;14477;51.038;4.588;2023-01-28T16:13:58;7.90;99.90
26909;DHT22;14477;51.038;4.588;2023-01-28T16:16:33;7.90;99.90
26909;DHT22;14477;51.038;4.588;2023-01-28T16:19:04;7.80;99.90
26909;DHT22;14477;51.038;4.588;2023-01-28T16:21:34;7.80;99.90
26909;DHT22;14477;51.038;4.588;2023-01-28T16:24:06;7.70;99.90
26909;DHT22;14477;51.038;4.588;2023-01-28T16:26:55;7.70;99.90
26909;DHT22;14477;51.038;4.588;2023-01-28T16:29:21;7.60;99.90
26909;DHT22;14477;51.038;4.588;2023-01-28T16:31:47;7.70;99.90
26909;DHT22;14477;51.038;4.588;2023-01-28T16:34:12;7.60;99.90
26909;DHT22;14477;51.038;4.588;2023-01-28T16:36:38;7.60;99.90
26909;DHT22;14477;51.038;4.588;2023-01-28T16:39:04;7.60;99.90
26909;DHT22;14477;51.038;4.588;2023-01-28T16:41:34;7.60;99.90
26909;DHT22;14477;51.038;4.588;2023-01-28T16:44:02;7.50;99.90
26909;DHT22;14477;51.038;4.588;2023-01-28T16:46:31;7.50;99.90
26909;DHT22;14477;51.038;4.588;2023-01-28T16:48:58;7.50;99.90
26909;DHT22;14477;51.038;4.588;2023-01-28T16:51:24;7.50;99.90
26909;DHT22;14477;51.038;4.588;2023-01-28T16:53:50;7.40;99.90
26909;DHT22;14477;51.038;4.588;2023-01-28T16:56:20;7.40;99.90
26909;DHT22;14477;51.038;4.588;2023-01-28T16:58:47;7.30;99.90
26909;DHT22;14477;51.038;4.588;2023-01-28T17:01:13;7.20;99.90
26909;DHT22;14477;51.038;4.588;2023-01-28T17:03:38;7.10;99.90
26909;DHT22;14477;51.038;4.588;2023-01-28T17:06:06;7.00;99.90
26909;DHT22;14477;51.038;4.588;2023-01-28T17:08:31;6.90;99.90
26909;DHT22;14477;51.038;4.588;2023-01-28T17:10:57;6.90;99.90
26909;DHT22;14477;51.038;4.588;2023-01-28T17:13:23;6.80;99.90
26909;DHT22;14477;51.038;4.588;2023-01-28T17:15:49;6.70;99.90
26909;DHT22;14477;51.038;4.588;2023-01-28T17:18:15;6.50;99.90
26909;DHT22;14477;51.038;4.588;2023-01-28T17:20:40;6.40;99.90
26909;DHT22;14477;51.038;4.588;2023-01-28T17:23:06;6.40;99.90
26909;DHT22;14477;51.038;4.588;2023-01-28T17:25:37;6.20;99.90
26909;DHT22;14477;51.038;4.588;2023-01-28T17:28:07;6.10;99.90
26909;DHT22;14477;51.038;4.588;2023-01-28T17:30:33;6.00;99.90
26909;DHT22;14477;51.038;4.588;2023-01-28T17:32:59;6.00;99.90
26909;DHT22;14477;51.038;4.588;2023-01-28T17:35:24;5.90;99.90
26909;DHT22;14477;51.038;4.588;2023-01-28T17:37:54;5.80;99.90
26909;DHT22;14477;51.038;4.588;2023-01-28T17:40:20;5.70;99.90
26909;DHT22;14477;51.038;4.588;2023-01-28T17:42:46;5.60;99.90
26909;DHT22;14477;51.038;4.588;2023-01-28T17:45:11;5.50;99.90
26909;DHT22;14477;51.038;4.588;2023-01-28T17:47:37;5.40;99.90
26909;DHT22;14477;51.038;4.588;2023-01-28T17:50:04;5.30;99.90
26909;DHT22;14477;51.038;4.588;2023-01-28T17:52:30;5.20;99.90
26909;DHT22;14477;51.038;4.588;2023-01-28T17:54:56;5.20;99.90
26909;DHT22;14477;51.038;4.588;2023-01-28T17:57:22;5.10;99.90
26909;DHT22;14477;51.038;4.588;2023-01-28T17:59:48;5.00;99.90
26909;DHT22;14477;51.038;4.588;2023-01-28T18:02:14;4.90;99.90
26909;DHT22;14477;51.038;4.588;2023-01-28T18:04:40;4.80;99.90
26909;DHT22;14477;51.038;4.588;2023-01-28T18:07:08;4.80;99.90
26909;DHT22;14477;51.038;4.588;2023-01-28T18:09:41;4.70;99.90
26909;DHT22;14477;51.038;4.588;2023-01-28T18:12:09;4.70;99.90
26909;DHT22;14477;51.038;4.588;2023-01-28T18:14:36;4.60;99.90
26909;DHT22;14477;51.038;4.588;2023-01-28T18:17:02;4.50;99.90
26909;DHT22;14477;51.038;4.588;2023-01-28T18:19:28;4.50;99.90